Terminal Aerodrome Forecast
Issued by NWS

Home | Current Version | Previous Version | Text Only | Print | Product List | Glossary On
Versions: 1 2 3 4 5 6 7 8 9 10 11 12
430
FTUS43 KPAH 231120
TAFCGI
TAF
KCGI 231120Z 2312/2412 21003KT P6SM BKN150
     FM232000 24005KT P6SM VCSH BKN080
     FM240100 31006KT 6SM -SHRA OVC060=

USA.gov is the U.S. government's official web portal to all federal, state and local government web resources and services.